sensor_id;sensor_type;location;lat;lon;timestamp;pressure;altitude;pressure_sealevel;temperature;humidity
29815;BME280;16708;50.426;7.664;2023-05-19T00:04:06;994.80;;;10.54;96.82
29815;BME280;16708;50.426;7.664;2023-05-19T00:09:00;994.78;;;10.55;97.19
29815;BME280;16708;50.426;7.664;2023-05-19T00:13:55;994.83;;;10.55;96.25
29815;BME280;16708;50.426;7.664;2023-05-19T00:18:49;994.85;;;10.54;96.62
29815;BME280;16708;50.426;7.664;2023-05-19T00:23:43;994.76;;;10.55;96.64
29815;BME280;16708;50.426;7.664;2023-05-19T00:28:38;994.77;;;10.51;97.56
29815;BME280;16708;50.426;7.664;2023-05-19T00:33:32;994.73;;;10.44;98.83
29815;BME280;16708;50.426;7.664;2023-05-19T00:38:25;994.64;;;10.30;100.00
29815;BME280;16708;50.426;7.664;2023-05-19T00:43:18;994.67;;;10.20;100.00
29815;BME280;16708;50.426;7.664;2023-05-19T00:48:12;994.63;;;10.09;100.00
29815;BME280;16708;50.426;7.664;2023-05-19T00:53:05;994.59;;;9.60;100.00
29815;BME280;16708;50.426;7.664;2023-05-19T00:57:59;994.63;;;9.63;100.00
29815;BME280;16708;50.426;7.664;2023-05-19T01:02:53;994.65;;;9.47;100.00
29815;BME280;16708;50.426;7.664;2023-05-19T01:07:48;994.73;;;9.31;100.00
29815;BME280;16708;50.426;7.664;2023-05-19T01:12:41;994.75;;;8.81;100.00
29815;BME280;16708;50.426;7.664;2023-05-19T01:17:35;994.73;;;8.77;100.00
29815;BME280;16708;50.426;7.664;2023-05-19T01:32:18;994.78;;;8.42;100.00
29815;BME280;16708;50.426;7.664;2023-05-19T01:37:12;994.81;;;8.34;100.00
29815;BME280;16708;50.426;7.664;2023-05-19T01:42:06;994.85;;;8.49;100.00
29815;BME280;16708;50.426;7.664;2023-05-19T01:47:01;994.76;;;8.51;100.00
29815;BME280;16708;50.426;7.664;2023-05-19T01:51:55;994.70;;;8.51;100.00
29815;BME280;16708;50.426;7.664;2023-05-19T01:56:51;994.85;;;8.43;100.00
29815;BME280;16708;50.426;7.664;2023-05-19T02:01:44;994.71;;;8.34;100.00
29815;BME280;16708;50.426;7.664;2023-05-19T02:06:38;994.64;;;8.19;100.00
29815;BME280;16708;50.426;7.664;2023-05-19T02:11:32;994.74;;;7.88;100.00
29815;BME280;16708;50.426;7.664;2023-05-19T02:16:26;994.74;;;7.66;100.00
29815;BME280;16708;50.426;7.664;2023-05-19T02:21:21;994.67;;;7.76;100.00
29815;BME280;16708;50.426;7.664;2023-05-19T02:26:15;994.64;;;7.50;100.00
29815;BME280;16708;50.426;7.664;2023-05-19T02:31:10;994.57;;;7.52;100.00
29815;BME280;16708;50.426;7.664;2023-05-19T02:36:04;994.60;;;8.50;100.00
29815;BME280;16708;50.426;7.664;2023-05-19T02:40:58;994.60;;;8.24;100.00
29815;BME280;16708;50.426;7.664;2023-05-19T02:45:51;994.53;;;8.11;100.00
29815;BME280;16708;50.426;7.664;2023-05-19T02:50:46;994.60;;;7.90;100.00
29815;BME280;16708;50.426;7.664;2023-05-19T02:55:40;994.61;;;7.79;100.00
29815;BME280;16708;50.426;7.664;2023-05-19T03:00:34;994.64;;;7.65;100.00
29815;BME280;16708;50.426;7.664;2023-05-19T03:05:28;994.56;;;8.13;100.00
29815;BME280;16708;50.426;7.664;2023-05-19T03:10:23;994.64;;;7.76;100.00
29815;BME280;16708;50.426;7.664;2023-05-19T03:15:17;994.54;;;7.62;100.00
29815;BME280;16708;50.426;7.664;2023-05-19T03:20:11;994.54;;;7.60;100.00
29815;BME280;16708;50.426;7.664;2023-05-19T03:25:06;994.65;;;7.25;100.00
29815;BME280;16708;50.426;7.664;2023-05-19T03:30:00;994.62;;;7.06;100.00
29815;BME280;16708;50.426;7.664;2023-05-19T03:34:54;994.60;;;6.70;100.00
29815;BME280;16708;50.426;7.664;2023-05-19T03:39:48;994.57;;;6.98;100.00
29815;BME280;16708;50.426;7.664;2023-05-19T03:44:43;994.59;;;6.51;100.00
29815;BME280;16708;50.426;7.664;2023-05-19T03:49:37;994.66;;;6.50;100.00
29815;BME280;16708;50.426;7.664;2023-05-19T03:54:31;994.57;;;6.59;100.00
29815;BME280;16708;50.426;7.664;2023-05-19T03:59:24;994.67;;;6.34;100.00
29815;BME280;16708;50.426;7.664;2023-05-19T04:04:18;994.74;;;6.52;100.00
29815;BME280;16708;50.426;7.664;2023-05-19T04:09:12;994.86;;;6.53;100.00
29815;BME280;16708;50.426;7.664;2023-05-19T04:14:06;994.80;;;6.48;100.00
29815;BME280;16708;50.426;7.664;2023-05-19T04:19:00;994.87;;;6.47;100.00
29815;BME280;16708;50.426;7.664;2023-05-19T04:23:55;994.92;;;6.44;100.00
29815;BME280;16708;50.426;7.664;2023-05-19T04:28:49;994.80;;;6.61;100.00
29815;BME280;16708;50.426;7.664;2023-05-19T04:33:44;994.80;;;6.76;100.00
29815;BME280;16708;50.426;7.664;2023-05-19T04:38:38;994.86;;;6.84;100.00
29815;BME280;16708;50.426;7.664;2023-05-19T04:43:32;994.94;;;7.00;100.00
29815;BME280;16708;50.426;7.664;2023-05-19T04:48:27;994.95;;;7.16;100.00
29815;BME280;16708;50.426;7.664;2023-05-19T04:53:21;994.85;;;7.29;100.00
29815;BME280;16708;50.426;7.664;2023-05-19T04:58:15;994.90;;;7.49;100.00
29815;BME280;16708;50.426;7.664;2023-05-19T05:03:10;994.81;;;7.62;100.00
29815;BME280;16708;50.426;7.664;2023-05-19T05:08:04;994.89;;;7.86;100.00
29815;BME280;16708;50.426;7.664;2023-05-19T05:12:58;994.85;;;8.01;100.00
29815;BME280;16708;50.426;7.664;2023-05-19T05:17:53;994.82;;;8.17;100.00
29815;BME280;16708;50.426;7.664;2023-05-19T05:22:47;994.87;;;8.63;100.00
29815;BME280;16708;50.426;7.664;2023-05-19T05:27:42;994.90;;;8.74;100.00
29815;BME280;16708;50.426;7.664;2023-05-19T05:32:36;994.78;;;8.87;100.00
29815;BME280;16708;50.426;7.664;2023-05-19T05:37:31;994.81;;;9.01;100.00
29815;BME280;16708;50.426;7.664;2023-05-19T05:42:25;994.80;;;9.15;100.00
29815;BME280;16708;50.426;7.664;2023-05-19T05:47:19;994.77;;;9.35;100.00
29815;BME280;16708;50.426;7.664;2023-05-19T05:52:14;994.85;;;9.58;100.00
29815;BME280;16708;50.426;7.664;2023-05-19T05:57:08;994.76;;;9.76;100.00
29815;BME280;16708;50.426;7.664;2023-05-19T06:02:03;994.81;;;9.94;100.00
29815;BME280;16708;50.426;7.664;2023-05-19T06:06:56;994.77;;;10.21;100.00
29815;BME280;16708;50.426;7.664;2023-05-19T06:11:51;994.82;;;10.44;100.00
29815;BME280;16708;50.426;7.664;2023-05-19T06:16:44;994.83;;;10.81;100.00
29815;BME280;16708;50.426;7.664;2023-05-19T06:21:36;994.85;;;11.03;100.00
29815;BME280;16708;50.426;7.664;2023-05-19T06:26:30;994.69;;;11.23;100.00
29815;BME280;16708;50.426;7.664;2023-05-19T06:31:24;994.78;;;11.54;100.00
29815;BME280;16708;50.426;7.664;2023-05-19T06:36:18;994.77;;;11.97;100.00
29815;BME280;16708;50.426;7.664;2023-05-19T06:41:13;994.79;;;12.03;100.00
29815;BME280;16708;50.426;7.664;2023-05-19T06:46:07;994.75;;;12.22;100.00
29815;BME280;16708;50.426;7.664;2023-05-19T06:51:02;994.75;;;12.31;100.00
29815;BME280;16708;50.426;7.664;2023-05-19T06:55:56;994.75;;;12.29;94.86
29815;BME280;16708;50.426;7.664;2023-05-19T07:00:50;994.75;;;12.90;100.00
29815;BME280;16708;50.426;7.664;2023-05-19T07:05:45;994.73;;;13.12;99.57
29815;BME280;16708;50.426;7.664;2023-05-19T07:10:38;994.70;;;13.31;90.89
29815;BME280;16708;50.426;7.664;2023-05-19T07:15:32;994.66;;;13.47;90.89
29815;BME280;16708;50.426;7.664;2023-05-19T07:20:26;994.67;;;13.51;85.85
29815;BME280;16708;50.426;7.664;2023-05-19T07:25:21;994.66;;;13.60;80.63
29815;BME280;16708;50.426;7.664;2023-05-19T07:30:16;994.61;;;13.88;83.41
29815;BME280;16708;50.426;7.664;2023-05-19T07:35:10;994.59;;;14.00;84.12
29815;BME280;16708;50.426;7.664;2023-05-19T07:40:04;994.58;;;14.33;81.81
29815;BME280;16708;50.426;7.664;2023-05-19T07:44:59;994.58;;;14.42;75.28
29815;BME280;16708;50.426;7.664;2023-05-19T07:49:53;994.63;;;14.67;69.31
29815;BME280;16708;50.426;7.664;2023-05-19T07:54:49;994.56;;;14.82;66.82
29815;BME280;16708;50.426;7.664;2023-05-19T07:59:43;994.55;;;14.99;64.00
29815;BME280;16708;50.426;7.664;2023-05-19T08:04:38;994.49;;;15.40;65.24
29815;BME280;16708;50.426;7.664;2023-05-19T08:09:32;994.52;;;15.57;61.47
29815;BME280;16708;50.426;7.664;2023-05-19T08:14:27;994.40;;;15.57;62.80
29815;BME280;16708;50.426;7.664;2023-05-19T08:19:21;994.45;;;15.65;64.20
29815;BME280;16708;50.426;7.664;2023-05-19T08:24:16;994.43;;;15.84;61.97
29815;BME280;16708;50.426;7.664;2023-05-19T08:29:10;994.47;;;15.75;60.06
29815;BME280;16708;50.426;7.664;2023-05-19T08:34:05;994.41;;;15.78;57.96
29815;BME280;16708;50.426;7.664;2023-05-19T08:38:59;994.40;;;16.09;56.52
29815;BME280;16708;50.426;7.664;2023-05-19T08:43:53;994.38;;;16.54;56.41
29815;BME280;16708;50.426;7.664;2023-05-19T08:48:48;994.38;;;16.91;53.99
29815;BME280;16708;50.426;7.664;2023-05-19T08:53:42;994.29;;;16.79;54.07
29815;BME280;16708;50.426;7.664;2023-05-19T08:58:37;994.16;;;16.73;55.42
29815;BME280;16708;50.426;7.664;2023-05-19T09:03:29;994.07;;;17.06;54.31
29815;BME280;16708;50.426;7.664;2023-05-19T09:08:24;994.07;;;17.22;52.27
29815;BME280;16708;50.426;7.664;2023-05-19T09:13:18;994.08;;;17.59;54.33
29815;BME280;16708;50.426;7.664;2023-05-19T09:18:13;994.10;;;18.16;47.52
29815;BME280;16708;50.426;7.664;2023-05-19T09:23:08;994.02;;;18.50;46.93
29815;BME280;16708;50.426;7.664;2023-05-19T09:32:58;993.96;;;18.28;48.48
29815;BME280;16708;50.426;7.664;2023-05-19T09:37:52;994.02;;;18.72;46.29
29815;BME280;16708;50.426;7.664;2023-05-19T09:42:47;993.95;;;19.23;45.39
29815;BME280;16708;50.426;7.664;2023-05-19T09:47:41;993.84;;;20.27;45.46
29815;BME280;16708;50.426;7.664;2023-05-19T09:52:37;993.93;;;21.50;38.18
29815;BME280;16708;50.426;7.664;2023-05-19T09:57:33;993.92;;;21.22;40.21
29815;BME280;16708;50.426;7.664;2023-05-19T10:02:28;993.87;;;22.77;35.06
29815;BME280;16708;50.426;7.664;2023-05-19T10:07:24;993.98;;;22.19;37.95
29815;BME280;16708;50.426;7.664;2023-05-19T10:12:19;993.78;;;22.31;33.96
29815;BME280;16708;50.426;7.664;2023-05-19T10:17:15;993.73;;;23.31;33.95
29815;BME280;16708;50.426;7.664;2023-05-19T10:22:09;993.64;;;23.54;34.92
29815;BME280;16708;50.426;7.664;2023-05-19T10:27:04;993.58;;;24.82;31.51
29815;BME280;16708;50.426;7.664;2023-05-19T10:36:55;993.61;;;23.85;31.15
29815;BME280;16708;50.426;7.664;2023-05-19T10:41:49;993.45;;;24.00;32.04
29815;BME280;16708;50.426;7.664;2023-05-19T10:46:44;993.41;;;23.31;30.63
29815;BME280;16708;50.426;7.664;2023-05-19T10:51:39;993.44;;;24.39;28.97
29815;BME280;16708;50.426;7.664;2023-05-19T11:01:29;993.39;;;26.03;28.02
29815;BME280;16708;50.426;7.664;2023-05-19T11:06:24;993.27;;;24.60;31.21
29815;BME280;16708;50.426;7.664;2023-05-19T11:11:18;993.29;;;24.57;31.30
29815;BME280;16708;50.426;7.664;2023-05-19T11:16:12;993.29;;;24.06;30.00
29815;BME280;16708;50.426;7.664;2023-05-19T11:21:02;993.33;;;24.63;29.27
29815;BME280;16708;50.426;7.664;2023-05-19T11:25:56;993.20;;;24.74;29.96
29815;BME280;16708;50.426;7.664;2023-05-19T11:30:51;993.20;;;25.66;28.64
29815;BME280;16708;50.426;7.664;2023-05-19T11:35:46;993.05;;;24.92;27.96
29815;BME280;16708;50.426;7.664;2023-05-19T11:40:41;993.09;;;25.90;27.87
29815;BME280;16708;50.426;7.664;2023-05-19T11:45:35;993.15;;;26.49;26.62
29815;BME280;16708;50.426;7.664;2023-05-19T11:50:29;993.17;;;26.82;25.56
29815;BME280;16708;50.426;7.664;2023-05-19T11:55:24;992.95;;;26.99;24.57
29815;BME280;16708;50.426;7.664;2023-05-19T12:00:18;992.95;;;26.73;24.32
29815;BME280;16708;50.426;7.664;2023-05-19T12:05:10;992.90;;;25.88;24.43
29815;BME280;16708;50.426;7.664;2023-05-19T12:10:04;992.89;;;27.05;25.83
29815;BME280;16708;50.426;7.664;2023-05-19T12:14:55;992.87;;;27.99;24.58
29815;BME280;16708;50.426;7.664;2023-05-19T12:19:50;992.81;;;28.24;24.25
29815;BME280;16708;50.426;7.664;2023-05-19T12:24:44;992.80;;;28.75;22.21
29815;BME280;16708;50.426;7.664;2023-05-19T12:29:38;992.75;;;27.24;22.40
29815;BME280;16708;50.426;7.664;2023-05-19T12:34:32;992.62;;;26.43;23.21
29815;BME280;16708;50.426;7.664;2023-05-19T12:39:26;992.62;;;27.04;23.67
29815;BME280;16708;50.426;7.664;2023-05-19T12:44:20;992.65;;;26.25;26.00
29815;BME280;16708;50.426;7.664;2023-05-19T12:49:14;992.58;;;26.43;24.90
29815;BME280;16708;50.426;7.664;2023-05-19T12:54:08;992.59;;;27.26;24.88
29815;BME280;16708;50.426;7.664;2023-05-19T12:59:02;992.47;;;28.17;23.88
29815;BME280;16708;50.426;7.664;2023-05-19T13:03:56;992.44;;;26.00;26.57
29815;BME280;16708;50.426;7.664;2023-05-19T13:08:49;992.39;;;27.72;23.36
29815;BME280;16708;50.426;7.664;2023-05-19T13:13:44;992.48;;;28.13;23.94
29815;BME280;16708;50.426;7.664;2023-05-19T13:18:39;992.38;;;27.05;25.15
29815;BME280;16708;50.426;7.664;2023-05-19T13:23:33;992.43;;;27.92;22.66
29815;BME280;16708;50.426;7.664;2023-05-19T13:28:28;992.35;;;25.15;24.45
29815;BME280;16708;50.426;7.664;2023-05-19T13:33:21;992.38;;;26.03;23.89
29815;BME280;16708;50.426;7.664;2023-05-19T13:38:16;992.29;;;25.52;25.32
29815;BME280;16708;50.426;7.664;2023-05-19T13:43:09;992.31;;;24.70;26.45
29815;BME280;16708;50.426;7.664;2023-05-19T13:48:03;992.25;;;25.04;26.60
29815;BME280;16708;50.426;7.664;2023-05-19T13:52:56;992.16;;;25.44;26.35
29815;BME280;16708;50.426;7.664;2023-05-19T13:57:51;992.17;;;26.48;24.97
29815;BME280;16708;50.426;7.664;2023-05-19T14:02:45;992.04;;;27.71;23.80
29815;BME280;16708;50.426;7.664;2023-05-19T14:07:40;992.11;;;28.57;22.16
29815;BME280;16708;50.426;7.664;2023-05-19T14:12:36;992.17;;;30.01;21.66
29815;BME280;16708;50.426;7.664;2023-05-19T14:17:29;992.10;;;27.73;22.88
29815;BME280;16708;50.426;7.664;2023-05-19T14:22:23;992.06;;;27.44;24.07
29815;BME280;16708;50.426;7.664;2023-05-19T14:27:17;992.03;;;27.06;24.50
29815;BME280;16708;50.426;7.664;2023-05-19T14:32:11;992.04;;;24.66;27.39
29815;BME280;16708;50.426;7.664;2023-05-19T14:37:04;991.97;;;26.58;26.03
29815;BME280;16708;50.426;7.664;2023-05-19T14:41:59;991.86;;;28.06;26.00
29815;BME280;16708;50.426;7.664;2023-05-19T14:46:54;991.84;;;25.83;27.07
29815;BME280;16708;50.426;7.664;2023-05-19T14:51:48;991.84;;;24.65;29.30
29815;BME280;16708;50.426;7.664;2023-05-19T14:56:41;991.79;;;22.78;31.99
29815;BME280;16708;50.426;7.664;2023-05-19T15:01:35;991.96;;;22.42;32.88
29815;BME280;16708;50.426;7.664;2023-05-19T15:06:28;991.93;;;23.83;30.87
29815;BME280;16708;50.426;7.664;2023-05-19T15:11:23;991.87;;;25.49;29.10
29815;BME280;16708;50.426;7.664;2023-05-19T15:16:17;991.82;;;25.56;28.24
29815;BME280;16708;50.426;7.664;2023-05-19T15:21:12;991.73;;;25.73;28.71
29815;BME280;16708;50.426;7.664;2023-05-19T15:26:06;991.74;;;25.00;29.60
29815;BME280;16708;50.426;7.664;2023-05-19T15:31:01;991.78;;;22.57;33.64
29815;BME280;16708;50.426;7.664;2023-05-19T15:35:53;991.76;;;22.19;34.00
29815;BME280;16708;50.426;7.664;2023-05-19T15:40:46;991.69;;;21.98;35.11
29815;BME280;16708;50.426;7.664;2023-05-19T15:45:40;991.62;;;24.57;30.67
29815;BME280;16708;50.426;7.664;2023-05-19T15:50:35;991.73;;;26.27;28.35
29815;BME280;16708;50.426;7.664;2023-05-19T15:55:30;991.60;;;24.46;30.87
29815;BME280;16708;50.426;7.664;2023-05-19T16:00:24;991.65;;;24.82;30.35
29815;BME280;16708;50.426;7.664;2023-05-19T16:05:18;991.53;;;23.64;32.34
29815;BME280;16708;50.426;7.664;2023-05-19T16:10:12;991.59;;;23.05;33.25
29815;BME280;16708;50.426;7.664;2023-05-19T16:15:06;991.53;;;22.69;34.22
29815;BME280;16708;50.426;7.664;2023-05-19T16:19:59;991.47;;;22.61;33.38
29815;BME280;16708;50.426;7.664;2023-05-19T16:24:53;991.45;;;22.32;34.25
29815;BME280;16708;50.426;7.664;2023-05-19T16:29:47;991.38;;;22.41;34.53
29815;BME280;16708;50.426;7.664;2023-05-19T16:34:41;991.42;;;24.97;31.08
29815;BME280;16708;50.426;7.664;2023-05-19T16:39:34;991.32;;;23.92;31.46
29815;BME280;16708;50.426;7.664;2023-05-19T16:44:27;991.30;;;22.62;33.25
29815;BME280;16708;50.426;7.664;2023-05-19T16:49:21;991.27;;;23.53;31.75
29815;BME280;16708;50.426;7.664;2023-05-19T16:54:16;991.35;;;21.66;35.48
29815;BME280;16708;50.426;7.664;2023-05-19T16:59:08;991.40;;;20.04;37.99
29815;BME280;16708;50.426;7.664;2023-05-19T17:04:01;991.37;;;19.85;38.64
29815;BME280;16708;50.426;7.664;2023-05-19T17:08:52;991.28;;;19.91;40.21
29815;BME280;16708;50.426;7.664;2023-05-19T17:13:46;991.38;;;21.06;37.05
29815;BME280;16708;50.426;7.664;2023-05-19T17:18:40;991.36;;;20.29;39.94
29815;BME280;16708;50.426;7.664;2023-05-19T17:23:34;991.42;;;19.44;43.13
29815;BME280;16708;50.426;7.664;2023-05-19T17:28:28;991.43;;;19.10;43.51
29815;BME280;16708;50.426;7.664;2023-05-19T17:33:22;991.49;;;19.03;44.59
29815;BME280;16708;50.426;7.664;2023-05-19T17:38:16;991.51;;;19.06;44.66
29815;BME280;16708;50.426;7.664;2023-05-19T17:43:10;991.48;;;19.01;45.77
29815;BME280;16708;50.426;7.664;2023-05-19T17:48:04;991.52;;;18.65;45.80
29815;BME280;16708;50.426;7.664;2023-05-19T17:52:58;991.68;;;18.52;47.89
29815;BME280;16708;50.426;7.664;2023-05-19T17:57:52;991.56;;;18.90;45.67
29815;BME280;16708;50.426;7.664;2023-05-19T18:02:46;991.69;;;18.35;47.43
29815;BME280;16708;50.426;7.664;2023-05-19T18:07:39;991.69;;;19.30;45.02
29815;BME280;16708;50.426;7.664;2023-05-19T18:12:33;991.70;;;18.82;42.72
29815;BME280;16708;50.426;7.664;2023-05-19T18:17:27;991.70;;;19.58;41.32
29815;BME280;16708;50.426;7.664;2023-05-19T18:22:21;991.77;;;19.17;42.61
29815;BME280;16708;50.426;7.664;2023-05-19T18:27:13;991.76;;;18.22;43.60
29815;BME280;16708;50.426;7.664;2023-05-19T18:32:07;991.82;;;17.64;45.75
29815;BME280;16708;50.426;7.664;2023-05-19T18:37:01;991.88;;;17.55;47.42
29815;BME280;16708;50.426;7.664;2023-05-19T18:41:55;991.84;;;17.30;47.23
29815;BME280;16708;50.426;7.664;2023-05-19T18:46:49;991.82;;;17.13;48.19
29815;BME280;16708;50.426;7.664;2023-05-19T18:51:43;991.92;;;16.76;51.32
29815;BME280;16708;50.426;7.664;2023-05-19T18:56:37;991.98;;;16.60;53.39
29815;BME280;16708;50.426;7.664;2023-05-19T19:01:30;991.92;;;16.46;55.02
29815;BME280;16708;50.426;7.664;2023-05-19T19:06:24;992.00;;;16.26;55.91
29815;BME280;16708;50.426;7.664;2023-05-19T19:11:16;991.96;;;16.15;58.26
29815;BME280;16708;50.426;7.664;2023-05-19T19:16:10;992.05;;;16.10;58.79
29815;BME280;16708;50.426;7.664;2023-05-19T19:21:05;992.04;;;15.84;59.75
29815;BME280;16708;50.426;7.664;2023-05-19T19:25:59;992.05;;;15.55;62.67
29815;BME280;16708;50.426;7.664;2023-05-19T19:30:53;992.09;;;15.52;64.19
29815;BME280;16708;50.426;7.664;2023-05-19T19:35:49;992.07;;;15.40;67.03
29815;BME280;16708;50.426;7.664;2023-05-19T19:40:42;992.15;;;15.13;69.90
29815;BME280;16708;50.426;7.664;2023-05-19T19:45:35;992.19;;;14.91;72.01
29815;BME280;16708;50.426;7.664;2023-05-19T19:50:29;992.32;;;14.85;73.69
29815;BME280;16708;50.426;7.664;2023-05-19T19:55:24;992.39;;;14.70;79.36
29815;BME280;16708;50.426;7.664;2023-05-19T20:00:18;992.34;;;14.51;82.31
29815;BME280;16708;50.426;7.664;2023-05-19T20:05:12;992.31;;;14.32;84.51
29815;BME280;16708;50.426;7.664;2023-05-19T20:10:06;992.37;;;14.18;87.91
29815;BME280;16708;50.426;7.664;2023-05-19T20:15:00;992.35;;;13.95;92.19
29815;BME280;16708;50.426;7.664;2023-05-19T20:19:55;992.44;;;13.79;98.64
29815;BME280;16708;50.426;7.664;2023-05-19T20:24:48;992.46;;;13.60;99.23
29815;BME280;16708;50.426;7.664;2023-05-19T20:29:42;992.50;;;13.43;100.00
29815;BME280;16708;50.426;7.664;2023-05-19T20:34:35;992.45;;;13.31;100.00
29815;BME280;16708;50.426;7.664;2023-05-19T20:39:29;992.43;;;13.30;100.00
29815;BME280;16708;50.426;7.664;2023-05-19T20:44:23;992.47;;;13.27;100.00
29815;BME280;16708;50.426;7.664;2023-05-19T20:49:18;992.45;;;13.16;100.00
29815;BME280;16708;50.426;7.664;2023-05-19T20:54:12;992.54;;;13.11;100.00
29815;BME280;16708;50.426;7.664;2023-05-19T20:59:06;992.57;;;13.19;98.24
29815;BME280;16708;50.426;7.664;2023-05-19T21:04:00;992.40;;;13.21;92.28
29815;BME280;16708;50.426;7.664;2023-05-19T21:08:55;992.42;;;13.10;95.25
29815;BME280;16708;50.426;7.664;2023-05-19T21:13:50;992.35;;;13.06;91.72
29815;BME280;16708;50.426;7.664;2023-05-19T21:18:44;992.39;;;12.99;93.93
29815;BME280;16708;50.426;7.664;2023-05-19T21:23:37;992.43;;;12.80;99.74
29815;BME280;16708;50.426;7.664;2023-05-19T21:28:31;992.38;;;12.65;100.00
29815;BME280;16708;50.426;7.664;2023-05-19T21:33:25;992.37;;;12.45;100.00
29815;BME280;16708;50.426;7.664;2023-05-19T21:38:19;992.37;;;12.44;100.00
29815;BME280;16708;50.426;7.664;2023-05-19T21:43:14;992.31;;;12.62;95.12
29815;BME280;16708;50.426;7.664;2023-05-19T21:48:08;992.29;;;12.74;91.80
29815;BME280;16708;50.426;7.664;2023-05-19T21:53:03;992.20;;;12.91;86.49
29815;BME280;16708;50.426;7.664;2023-05-19T21:57:56;992.22;;;13.01;84.44
29815;BME280;16708;50.426;7.664;2023-05-19T22:02:50;992.19;;;13.10;83.49
29815;BME280;16708;50.426;7.664;2023-05-19T22:07:44;992.09;;;13.09;83.79
29815;BME280;16708;50.426;7.664;2023-05-19T22:12:38;991.98;;;13.18;81.25
29815;BME280;16708;50.426;7.664;2023-05-19T22:17:32;992.00;;;13.32;77.56
29815;BME280;16708;50.426;7.664;2023-05-19T22:22:24;991.99;;;13.32;79.91
29815;BME280;16708;50.426;7.664;2023-05-19T22:27:18;991.93;;;13.33;78.29
29815;BME280;16708;50.426;7.664;2023-05-19T22:32:13;991.94;;;13.36;78.90
29815;BME280;16708;50.426;7.664;2023-05-19T22:37:07;992.00;;;13.37;78.83
29815;BME280;16708;50.426;7.664;2023-05-19T22:42:01;991.90;;;13.39;79.47
29815;BME280;16708;50.426;7.664;2023-05-19T22:46:56;991.88;;;13.37;80.18
29815;BME280;16708;50.426;7.664;2023-05-19T22:51:50;991.78;;;13.35;81.14
29815;BME280;16708;50.426;7.664;2023-05-19T22:56:45;991.68;;;13.42;81.50
29815;BME280;16708;50.426;7.664;2023-05-19T23:01:39;991.67;;;13.36;84.11
29815;BME280;16708;50.426;7.664;2023-05-19T23:06:32;991.79;;;13.35;84.97
29815;BME280;16708;50.426;7.664;2023-05-19T23:11:26;991.65;;;13.44;85.48
29815;BME280;16708;50.426;7.664;2023-05-19T23:16:20;991.69;;;13.45;87.54
29815;BME280;16708;50.426;7.664;2023-05-19T23:21:15;991.77;;;13.53;87.54
29815;BME280;16708;50.426;7.664;2023-05-19T23:26:10;991.62;;;13.60;87.95
29815;BME280;16708;50.426;7.664;2023-05-19T23:35:58;991.61;;;13.57;91.70
29815;BME280;16708;50.426;7.664;2023-05-19T23:40:53;991.62;;;13.60;93.14
29815;BME280;16708;50.426;7.664;2023-05-19T23:45:47;991.52;;;13.59;92.68
29815;BME280;16708;50.426;7.664;2023-05-19T23:50:42;991.50;;;13.58;96.07
29815;BME280;16708;50.426;7.664;2023-05-19T23:55:36;991.64;;;13.57;96.41
